Map

Track Data

SID SEASON NUMBER BASIN SUBBASIN NAME ISO_TIME NATURE LAT LON WMO_WIND WMO_PRES WMO_AGENCY TRACK_TYPE DIST2LAND LANDFALL IFLAG USA_AGENCY USA_ATCF_ID USA_LAT USA_LON USA_RECORD USA_STATUS USA_WIND USA_PRES USA_SSHS USA_R34_NE USA_R34_SE USA_R34_SW USA_R34_NW USA_R50_NE USA_R50_SE USA_R50_SW USA_R50_NW USA_R64_NE USA_R64_SE USA_R64_SW USA_R64_NW USA_POCI USA_ROCI USA_RMW USA_EYE TOKYO_LAT TOKYO_LON TOKYO_GRADE TOKYO_WIND TOKYO_PRES TOKYO_R50_DIR TOKYO_R50_LONG TOKYO_R50_SHORT TOKYO_R30_DIR TOKYO_R30_LONG TOKYO_R30_SHORT TOKYO_LAND CMA_LAT CMA_LON CMA_CAT CMA_WIND CMA_PRES HKO_LAT HKO_LON HKO_CAT HKO_WIND HKO_PRES NEWDELHI_LAT NEWDELHI_LON NEWDELHI_GRADE NEWDELHI_WIND NEWDELHI_PRES NEWDELHI_CI NEWDELHI_DP NEWDELHI_POCI REUNION_LAT REUNION_LON REUNION_TYPE REUNION_WIND REUNION_PRES REUNION_TNUM REUNION_CI REUNION_RMW REUNION_R34_NE REUNION_R34_SE REUNION_R34_SW REUNION_R34_NW REUNION_R50_NE REUNION_R50_SE REUNION_R50_SW REUNION_R50_NW REUNION_R64_NE REUNION_R64_SE REUNION_R64_SW REUNION_R64_NW BOM_LAT BOM_LON BOM_TYPE BOM_WIND BOM_PRES BOM_TNUM BOM_CI BOM_RMW BOM_R34_NE BOM_R34_SE BOM_R34_SW BOM_R34_NW BOM_R50_NE BOM_R50_SE BOM_R50_SW BOM_R50_NW BOM_R64_NE BOM_R64_SE BOM_R64_SW BOM_R64_NW BOM_ROCI BOM_POCI BOM_EYE BOM_POS_METHOD BOM_PRES_METHOD NADI_LAT NADI_LON NADI_CAT NADI_WIND NADI_PRES WELLINGTON_LAT WELLINGTON_LON WELLINGTON_WIND WELLINGTON_PRES DS824_LAT DS824_LON DS824_STAGE DS824_WIND DS824_PRES TD9636_LAT TD9636_LON TD9636_STAGE TD9636_WIND TD9636_PRES TD9635_LAT TD9635_LON TD9635_WIND TD9635_PRES TD9635_ROCI NEUMANN_LAT NEUMANN_LON NEUMANN_CLASS NEUMANN_WIND NEUMANN_PRES MLC_LAT MLC_LON MLC_CLASS MLC_WIND MLC_PRES USA_GUST BOM_GUST BOM_GUST_PER REUNION_GUST REUNION_GUST_PER USA_SEAHGT USA_SEARAD_NE USA_SEARAD_SE USA_SEARAD_SW USA_SEARAD_NW STORM_SPEED STORM_DIR
1912052S11069 1912 8 SI MM NOT_NAMED 1912-02-21 06:00:00 NR -11.1000 69.3000 reunion main 1598 1566 _____O________ -1 -11.1000 69.3000 99 9.90000 6 257
1912052S11069 1912 8 SI MM NOT_NAMED 1912-02-21 09:00:00 NR -11.1658 69.0000 main 1566 1541 _____P________ -1 -11.1658 69.0000 99 6 257
1912052S11069 1912 8 SI MM NOT_NAMED 1912-02-21 12:00:00 NR -11.2310 68.7023 main 1541 1509 _____P________ -1 -11.2310 68.7023 99 6 257
1912052S11069 1912 8 SI MM NOT_NAMED 1912-02-21 15:00:00 NR -11.2956 68.4092 main 1509 1501 _____P________ -1 -11.2956 68.4092 99 4 254
1912052S11069 1912 8 SI MM NOT_NAMED 1912-02-21 18:00:00 NR -11.3473 68.2987 main 1501 1478 _____P____O___ -1 -11.3591 68.1233 99 -11.3000 69.0000 7 4 250
1912052S11069 1912 8 SI MM NOT_NAMED 1912-02-21 21:00:00 NR -11.4157 68.0705 main 1478 1446 _____P____P___ -1 -11.4215 67.8470 99 -11.4040 68.5175 7 5 254
1912052S11069 1912 8 SI MM NOT_NAMED 1912-02-22 00:00:00 NR -11.4926 67.7864 main 1446 1414 _____P____P___ -1 -11.4826 67.5827 99 -11.5060 68.0579 7 6 255
1912052S11069 1912 8 SI MM NOT_NAMED 1912-02-22 03:00:00 NR -11.5736 67.4886 main 1414 1391 _____P____P___ -1 -11.5422 67.3329 99 -11.6049 67.6443 7 6 255
1912052S11069 1912 8 SI MM NOT_NAMED 1912-02-22 06:00:00 NR -11.6500 67.2000 reunion main 1391 1367 _____O____O___ -1 -11.6000 67.1000 99 9.90000 -11.7000 67.3000 7 5 254
1912052S11069 1912 8 SI MM NOT_NAMED 1912-02-22 09:00:00 NR -11.7231 66.9621 main 1367 1344 _____P____P___ -1 -11.6562 66.8850 99 -11.7899 67.0393 7 5 252
1912052S11069 1912 8 SI MM NOT_NAMED 1912-02-22 12:00:00 NR -11.7919 66.7615 main 1344 1321 _____P____P___ -1 -11.7118 66.6832 99 -11.8720 66.8399 7 4 251
1912052S11069 1912 8 SI MM NOT_NAMED 1912-02-22 15:00:00 NR -11.8555 66.5794 main 1321 1305 _____P____P___ -1 -11.7680 66.4883 99 -11.9431 66.6706 7 4 251
1912052S11069 1912 8 SI MM NOT_NAMED 1912-02-22 18:00:00 NR -11.9130 66.3970 main 1305 1282 _____P____O___ -1 -11.8260 66.2941 99 -12.0000 66.5000 7 4 255
1912052S11069 1912 8 SI MM NOT_NAMED 1912-02-22 21:00:00 NR -11.9550 66.1984 main 1282 1267 _____P____P___ -1 -11.8870 66.0944 99 -12.0230 66.3023 7 4 259
1912052S11069 1912 8 SI MM NOT_NAMED 1912-02-23 00:00:00 NR -11.9935 65.9889 main 1267 1252 _____P____P___ -1 -11.9523 65.8830 99 -12.0347 66.0947 7 4 259
1912052S11069 1912 8 SI MM NOT_NAMED 1912-02-23 03:00:00 NR -12.0385 65.7592 main 1252 1222 _____P____P___ -1 -12.0229 65.6536 99 -12.0542 65.8647 7 5 257
1912052S11069 1912 8 SI MM NOT_NAMED 1912-02-23 06:00:00 NR -12.1000 65.5000 reunion main 1222 1192 _____O____O___ -1 -12.1000 65.4000 99 9.90000 -12.1000 65.6000 7 6 255
1912052S11069 1912 8 SI MM NOT_NAMED 1912-02-23 09:00:00 NR -12.1874 65.2001 main 1192 1162 _____P____P___ -1 -12.1745 65.1141 99 -12.2004 65.2861 7 6 253
1912052S11069 1912 8 SI MM NOT_NAMED 1912-02-23 12:00:00 NR -12.2907 64.8722 main 1162 1126 _____P____P___ -1 -12.2538 64.8067 99 -12.3276 64.9377 7 7 252
1912052S11069 1912 8 SI MM NOT_NAMED 1912-02-23 15:00:00 NR -12.4026 64.5249 main 1126 1097 _____P____P___ -1 -12.3393 64.4793 99 -12.4660 64.5704 7 7 252
1912052S11069 1912 8 SI MM NOT_NAMED 1912-02-23 18:00:00 NR -12.5160 64.1668 main 1097 1061 _____P____O___ -1 -12.4320 64.1336 99 -12.6000 64.2000 7 7 253
1912052S11069 1912 8 SI MM NOT_NAMED 1912-02-23 21:00:00 NR -12.6140 63.8166 main 1061 1033 _____P____P___ -1 -12.5332 63.7712 99 -12.6947 63.8619 7 7 254
1912052S11069 1912 8 SI MM NOT_NAMED 1912-02-24 00:00:00 NR -12.7144 63.4579 main 1033 999 _____P____P___ -1 -12.6442 63.3938 99 -12.7846 63.5220 7 7 254
1912052S11069 1912 8 SI MM NOT_NAMED 1912-02-24 03:00:00 NR -12.8241 63.0870 main 999 965 _____P____P___ -1 -12.7660 63.0029 99 -12.8822 63.1712 7 8 252
1912052S11069 1912 8 SI MM NOT_NAMED 1912-02-24 06:00:00 NR -12.9500 62.7000 reunion main 965 923 _____O____O___ -1 -12.9000 62.6000 99 9.90000 -13.0000 62.8000 7 8 250
1912052S11069 1912 8 SI MM NOT_NAMED 1912-02-24 09:00:00 NR -13.1024 62.2894 main 923 882 _____P____P___ -1 -13.0475 62.1782 99 -13.1574 62.4007 7 9 249
1912052S11069 1912 8 SI MM NOT_NAMED 1912-02-24 12:00:00 NR -13.2712 61.8597 main 882 846 _____P____P___ -1 -13.2076 61.7394 99 -13.3349 61.9801 7 9 248
1912052S11069 1912 8 SI MM NOT_NAMED 1912-02-24 15:00:00 NR -13.4489 61.4171 main 846 807 _____P____P___ -1 -13.3780 61.2899 99 -13.5199 61.5444 7 9 248
1912052S11069 1912 8 SI MM NOT_NAMED 1912-02-24 18:00:00 NR -13.6281 60.9679 main 807 765 _____P____O___ -1 -13.5561 60.8358 99 -13.7000 61.1000 7 9 248
1912052S11069 1912 8 SI MM NOT_NAMED 1912-02-24 21:00:00 NR -13.7965 60.5101 main 765 728 _____P____P___ -1 -13.7397 60.3835 99 -13.8532 60.6367 7 10 249
1912052S11069 1912 8 SI MM NOT_NAMED 1912-02-25 00:00:00 NR -13.9633 60.0545 main 728 701 _____P____P___ -1 -13.9264 59.9392 99 -14.0001 60.1698 7 9 249
1912052S11069 1912 8 SI MM NOT_NAMED 1912-02-25 03:00:00 NR -14.1304 59.6136 main 701 668 _____P____P___ -1 -14.1139 59.5092 99 -14.1470 59.7180 7 9 248
1912052S11069 1912 8 SI MM NOT_NAMED 1912-02-25 06:00:00 NR -14.3000 59.2000 reunion main 668 650 _____O____O___ -1 -14.3000 59.1000 99 9.90000 -14.3000 59.3000 7 8 247
1912052S11069 1912 8 SI MM NOT_NAMED 1912-02-25 09:00:00 NR -14.4524 58.8362 main 637 621 _____P____P___ -1 -14.4416 58.7336 99 -14.4633 58.9388 7 7 246
1912052S11069 1912 8 SI MM NOT_NAMED 1912-02-25 12:00:00 NR -14.6069 58.4994 main 621 595 _____P____P___ -1 -14.5794 58.3866 99 -14.6345 58.6122 7 7 244
1912052S11069 1912 8 SI MM NOT_NAMED 1912-02-25 15:00:00 NR -14.7668 58.1799 main 595 582 _____P____P___ -1 -14.7202 58.0553 99 -14.8134 58.3044 7 7 242
1912052S11069 1912 8 SI MM NOT_NAMED 1912-02-25 18:00:00 NR -14.9353 57.8679 main 582 559 _____P____O___ -1 -14.8705 57.7359 99 -15.0000 58.0000 7 7 241
1912052S11069 1912 8 SI MM NOT_NAMED 1912-02-25 21:00:00 NR -15.1046 57.5576 main 559 537 _____P____P___ -1 -15.0371 57.4245 99 -15.1722 57.6907 7 7 239
1912052S11069 1912 8 SI MM NOT_NAMED 1912-02-26 00:00:00 NR -15.2905 57.2483 main 538 517 _____P____P___ -1 -15.2265 57.1174 99 -15.3545 57.3792 7 7 237
1912052S11069 1912 8 SI MM NOT_NAMED 1912-02-26 03:00:00 NR -15.5024 56.9318 main 518 499 _____P____P___ -1 -15.4452 56.8105 99 -15.5596 57.0531 7 8 234
1912052S11069 1912 8 SI MM NOT_NAMED 1912-02-26 06:00:00 NR -15.7500 56.6000 reunion main 501 475 _____O____O___ -1 -15.7000 56.5000 99 9.90000 -15.8000 56.7000 7 9 234
1912052S11069 1912 8 SI MM NOT_NAMED 1912-02-26 09:00:00 NR -16.0266 56.1881 main 478 457 _____P____P___ -1 -15.9921 56.1008 99 -16.0610 56.2754 7 10 234
1912052S11069 1912 8 SI MM NOT_NAMED 1912-02-26 12:00:00 NR -16.3393 55.7593 main 461 440 _____P____P___ -1 -16.3180 55.6910 99 -16.3606 55.8276 7 11 231
1912052S11069 1912 8 SI MM NOT_NAMED 1912-02-26 15:00:00 NR -16.6895 55.3377 main 445 426 _____P____P___ -1 -16.6742 55.2845 99 -16.7048 55.3910 7 11 226
1912052S11069 1912 8 SI MM NOT_NAMED 1912-02-26 18:00:00 NR -17.0788 54.9477 main 433 398 _____P____O___ -1 -17.0576 54.8955 99 -17.1000 55.0000 7 11 221
1912052S11069 1912 8 SI MM NOT_NAMED 1912-02-26 21:00:00 NR -17.5031 54.5947 main 398 359 _____P____P___ -1 -17.4648 54.5380 99 -17.5414 54.6514 7 11 215
1912052S11069 1912 8 SI MM NOT_NAMED 1912-02-27 00:00:00 NR -17.9626 54.2925 main 351 316 _____P____P___ -1 -17.8930 54.2266 99 -18.0323 54.3584 7 11 208
1912052S11069 1912 8 SI MM NOT_NAMED 1912-02-27 03:00:00 NR -18.4481 54.0559 main 316 276 _____P____P___ -1 -18.3390 53.9756 99 -18.5571 54.1361 7 11 201
1912052S11069 1912 8 SI MM NOT_NAMED 1912-02-27 06:00:00 NR -18.9500 53.9000 reunion main 276 237 _____O____O___ -1 -18.8000 53.8000 99 9.90000 -19.1000 54.0000 7 10 192
1912052S11069 1912 8 SI MM NOT_NAMED 1912-02-27 09:00:00 NR -19.4659 53.8331 main 229 190 _____P____P___ -1 -19.2761 53.7236 99 -19.6556 53.9426 7 11 183
1912052S11069 1912 8 SI MM NOT_NAMED 1912-02-27 12:00:00 NR -19.9981 53.8465 main 190 150 _____P____P___ -1 -19.7741 53.7215 99 -20.2222 53.9716 7 11 175
1912052S11069 1912 8 SI MM NOT_NAMED 1912-02-27 15:00:00 NR -20.5320 53.9242 main 150 125 _____P____P___ -1 -20.2864 53.7835 99 -20.7776 54.0648 7 11 170
1912052S11069 1912 8 SI MM NOT_NAMED 1912-02-27 18:00:00 NR -21.0528 54.0499 main 124 108 _____P____O___ -1 -20.8055 53.8997 99 -21.3000 54.2000 7 10 166
1912052S11069 1912 8 SI MM NOT_NAMED 1912-02-27 21:00:00 NR -21.5363 54.1916 main 112 112 _____P____P___ -1 -21.3240 54.0599 99 -21.7487 54.3232 7 10 163
1912052S11069 1912 8 SI MM NOT_NAMED 1912-02-28 00:00:00 NR -21.9996 54.3685 main 121 121 _____P____P___ -1 -21.8343 54.2537 99 -22.1648 54.4832 7 10 159
1912052S11069 1912 8 SI MM NOT_NAMED 1912-02-28 03:00:00 NR -22.4512 54.5736 main 152 152 _____P____P___ -1 -22.3288 54.4706 99 -22.5736 54.6766 7 10 156
1912052S11069 1912 8 SI MM NOT_NAMED 1912-02-28 06:00:00 NR -22.9000 54.8000 reunion main 186 186 _____O____O___ -1 -22.8000 54.7000 99 9.90000 -23.0000 54.9000 7 10 156
1912052S11069 1912 8 SI MM NOT_NAMED 1912-02-28 09:00:00 NR -23.3887 55.0321 main 231 229 _____P____P___ -1 -23.2581 54.9067 99 -23.5192 55.1575 7 11 155
1912052S11069 1912 8 SI MM NOT_NAMED 1912-02-28 12:00:00 NR -23.8762 55.2889 main 281 281 _____P____P___ -1 -23.6997 55.1367 99 -24.0528 55.4411 7 11 153
1912052S11069 1912 8 SI MM NOT_NAMED 1912-02-28 15:00:00 NR -24.3405 55.5561 main 324 324 _____P____P___ -1 -24.1210 55.3829 99 -24.5599 55.7293 7 10 151
1912052S11069 1912 8 SI MM NOT_NAMED 1912-02-28 18:00:00 NR -24.7593 55.8191 main 380 380 _____P____O___ -1 -24.5185 55.6381 99 -25.0000 56.0000 7 9 149
1912052S11069 1912 8 SI MM NOT_NAMED 1912-02-28 21:00:00 NR -25.1163 56.0654 main 416 416 _____P____P___ -1 -24.8887 55.8950 99 -25.3439 56.2357 7 8 147
1912052S11069 1912 8 SI MM NOT_NAMED 1912-02-29 00:00:00 NR -25.3906 56.2724 main 452 452 _____P____P___ -1 -25.2280 56.1460 99 -25.6073 56.4408 7 6 145
1912052S11069 1912 8 SI MM NOT_NAMED 1912-02-29 03:00:00 NR -25.6276 56.4642 main 478 478 _____P____P___ -1 -25.5329 56.3836 99 -25.8171 56.6255 7 6 144
1912052S11069 1912 8 SI MM NOT_NAMED 1912-02-29 06:00:00 NR -25.8400 56.6400 reunion main 502 502 _____O____O___ -1 -25.8000 56.6000 99 9.90000 -26.0000 56.8000 7 5 144
1912052S11069 1912 8 SI MM NOT_NAMED 1912-02-29 09:00:00 NR -26.0273 56.7893 main 528 528 _____P________ -1 -26.0273 56.7893 99 7 5 143
1912052S11069 1912 8 SI MM NOT_NAMED 1912-02-29 12:00:00 NR -26.2186 56.9531 main 555 555 _____P________ -1 -26.2186 56.9531 99 7 4 142
1912052S11069 1912 8 SI MM NOT_NAMED 1912-02-29 15:00:00 NR -26.3791 57.0948 main 579 579 _____P________ -1 -26.3791 57.0948 99 7 4 141
1912052S11069 1912 8 SI MM NOT_NAMED 1912-02-29 18:00:00 NR -26.5140 57.2181 main 592 592 _____P________ -1 -26.5140 57.2181 99 3 140
1912052S11069 1912 8 SI MM NOT_NAMED 1912-02-29 21:00:00 NR -26.6284 57.3266 main 606 606 _____P________ -1 -26.6284 57.3266 99 3 139
1912052S11069 1912 8 SI MM NOT_NAMED 1912-03-01 00:00:00 NR -26.7275 57.4239 main 619 619 _____P________ -1 -26.7275 57.4239 99 3 138
1912052S11069 1912 8 SI MM NOT_NAMED 1912-03-01 03:00:00 NR -26.8163 57.5138 main 633 633 _____P________ -1 -26.8163 57.5138 99 2 137
1912052S11069 1912 8 SI MM NOT_NAMED 1912-03-01 06:00:00 NR -26.9000 57.6000 reunion main 647 _____O________ -1 -26.9000 57.6000 99 9.90000 2 138

About IBTrACS Database

This database is a web-friendly format of International Best Track Archive for Climate Stewardship (IBTrACS), a global best track data archive curated by NOAA dating back to 1842.

Updated: 2021-11-26